Time;durP1;ratioP1;P1;durP2;ratioP2;P2;SDS_P1;SDS_P2;PMS_P1;PMS_P2;Temp;Humidity;BMP_temperature;BMP_pressure;BME280_temperature;BME280_humidity;BME280_pressure;Samples;Min_cycle;Max_cycle;Signal;HPM_P1;HPM_P2
2022/09/10 00:01:03;;;;;;;15.95;13.80;;;14.50;99.90;;;;;;5023615;28;20096;-64
2022/09/10 00:03:28;;;;;;;16.67;13.98;;;14.50;99.90;;;;;;5023586;28;20041;-64
2022/09/10 00:05:54;;;;;;;17.10;14.82;;;14.50;99.90;;;;;;5026145;28;20569;-65
2022/09/10 00:08:20;;;;;;;16.83;15.13;;;14.50;99.90;;;;;;5032426;28;20546;-65
2022/09/10 00:10:48;;;;;;;18.88;15.35;;;14.50;99.90;;;;;;5022873;28;20045;-66
2022/09/10 00:13:17;;;;;;;17.10;15.32;;;14.50;99.90;;;;;;5023227;28;20054;-64
2022/09/10 00:15:49;;;;;;;17.98;16.08;;;14.40;99.90;;;;;;5022194;28;20575;-64
2022/09/10 00:18:19;;;;;;;18.38;15.43;;;14.50;99.90;;;;;;5023506;28;20049;-64
2022/09/10 00:20:55;;;;;;;19.52;17.10;;;14.40;99.90;;;;;;5021978;28;20488;-65
2022/09/10 00:23:26;;;;;;;19.42;17.42;;;14.50;99.90;;;;;;5024336;28;20085;-65
2022/09/10 00:25:54;;;;;;;20.20;16.88;;;14.50;99.90;;;;;;5023614;28;20762;-64
2022/09/10 00:28:21;;;;;;;19.50;17.45;;;14.40;99.90;;;;;;5023315;28;20704;-65
2022/09/10 00:30:49;;;;;;;19.02;17.05;;;14.50;99.90;;;;;;5022908;28;20088;-64
2022/09/10 00:33:17;;;;;;;20.08;17.98;;;14.40;99.90;;;;;;5023212;28;20547;-64
2022/09/10 00:35:43;;;;;;;19.90;17.90;;;14.40;99.90;;;;;;5022810;28;21193;-64
2022/09/10 00:38:10;;;;;;;20.08;18.00;;;14.40;99.90;;;;;;5023468;28;20078;-64
2022/09/10 00:40:36;;;;;;;21.23;18.95;;;14.30;99.90;;;;;;5022427;28;20038;-64
2022/09/10 00:43:02;;;;;;;22.88;18.48;;;14.30;99.90;;;;;;5023264;28;20046;-64
2022/09/10 00:45:30;;;;;;;21.52;19.00;;;14.30;99.90;;;;;;5023345;28;20029;-63
2022/09/10 00:48:01;;;;;;;20.25;18.08;;;14.30;99.90;;;;;;5023533;28;20586;-64
2022/09/10 00:50:32;;;;;;;20.35;18.20;;;14.30;99.90;;;;;;5023128;28;20409;-64
2022/09/10 00:53:02;;;;;;;22.55;20.15;;;14.30;99.90;;;;;;5023362;28;20558;-64
2022/09/10 00:55:28;;;;;;;22.77;20.25;;;14.30;99.90;;;;;;5022080;28;20508;-63
2022/09/10 00:57:59;;;;;;;21.90;19.65;;;14.30;99.90;;;;;;5021560;28;20053;-64
2022/09/10 01:00:25;;;;;;;23.83;20.13;;;14.30;99.90;;;;;;5023385;28;20052;-64
2022/09/10 01:02:51;;;;;;;22.00;19.67;;;14.30;99.90;;;;;;5022246;28;20045;-64
2022/09/10 01:05:18;;;;;;;23.77;21.17;;;14.30;99.90;;;;;;5025082;28;20044;-64
2022/09/10 01:07:44;;;;;;;23.10;20.70;;;14.30;99.90;;;;;;5031567;28;20203;-64
2022/09/10 01:10:19;;;;;;;23.25;20.25;;;14.30;99.90;;;;;;5021075;28;20128;-64
2022/09/10 01:13:06;;;;;;;23.65;20.30;;;14.40;99.90;;;;;;5022845;28;20057;-64
2022/09/10 01:16:02;;;;;;;23.48;20.98;;;14.40;99.90;;;;;;5022753;28;20046;-64
2022/09/10 01:18:54;;;;;;;34.03;21.73;;;14.30;99.90;;;;;;5021988;28;20424;-63
2022/09/10 01:21:32;;;;;;;25.38;22.75;;;14.40;99.90;;;;;;5022980;28;20041;-64
2022/09/10 01:24:06;;;;;;;24.60;22.08;;;14.40;99.90;;;;;;5023005;28;20133;-64
2022/09/10 01:26:59;;;;;;;24.75;21.88;;;14.40;99.90;;;;;;5022159;28;20049;-64
2022/09/10 01:29:32;;;;;;;25.20;22.50;;;14.50;99.90;;;;;;5022878;28;20102;-64
2022/09/10 01:32:15;;;;;;;26.08;23.38;;;14.40;99.90;;;;;;5022634;28;20052;-64
2022/09/10 01:34:45;;;;;;;25.85;23.15;;;14.40;99.90;;;;;;5022652;28;20045;-64
2022/09/10 01:37:23;;;;;;;24.92;22.17;;;14.40;99.90;;;;;;5021809;28;20423;-64
2022/09/10 01:39:51;;;;;;;26.10;23.30;;;14.50;99.90;;;;;;5022776;28;20461;-63
2022/09/10 01:42:17;;;;;;;27.77;24.77;;;14.50;99.90;;;;;;5022771;28;20103;-64
2022/09/10 01:44:48;;;;;;;27.90;24.85;;;14.40;99.90;;;;;;5025411;28;20045;-64
2022/09/10 01:47:52;;;;;;;28.27;24.85;;;14.40;99.90;;;;;;5026605;28;20654;-64
2022/09/10 01:50:44;;;;;;;28.17;24.95;;;14.50;99.90;;;;;;5026836;28;20511;-64
2022/09/10 01:53:35;;;;;;;27.85;24.13;;;14.50;99.90;;;;;;5025585;28;20061;-64
2022/09/10 01:56:09;;;;;;;28.10;24.58;;;14.40;99.90;;;;;;5024301;28;20053;-64
2022/09/10 01:58:39;;;;;;;27.95;24.67;;;14.50;99.90;;;;;;5023935;28;20049;-65
2022/09/10 02:01:19;;;;;;;28.25;24.00;;;14.40;99.90;;;;;;5026145;28;20045;-64
2022/09/10 02:03:47;;;;;;;29.13;26.02;;;14.40;99.90;;;;;;5025894;28;20041;-64
2022/09/10 02:06:18;;;;;;;28.13;25.13;;;14.40;99.90;;;;;;5031222;28;20061;-64
2022/09/10 02:08:47;;;;;;;28.35;25.35;;;14.40;99.90;;;;;;5029336;28;20121;-63
2022/09/10 02:11:13;;;;;;;29.08;25.98;;;14.50;99.90;;;;;;5025256;28;20053;-64
2022/09/10 02:13:41;;;;;;;28.80;25.33;;;14.40;99.90;;;;;;5025710;28;20075;-64
2022/09/10 02:16:37;;;;;;;28.60;25.67;;;14.50;99.90;;;;;;5025886;28;20374;-64
2022/09/10 02:19:04;;;;;;;28.38;25.35;;;14.50;99.90;;;;;;5013267;28;20057;-63
2022/09/10 02:21:32;;;;;;;29.08;25.25;;;14.50;99.90;;;;;;5025759;28;20045;-64
2022/09/10 02:24:04;;;;;;;31.38;26.27;;;14.60;99.90;;;;;;5025455;28;20179;-63
2022/09/10 02:26:32;;;;;;;29.52;26.33;;;14.50;99.90;;;;;;5024371;28;20121;-64
2022/09/10 02:28:59;;;;;;;31.00;27.70;;;14.50;99.90;;;;;;5025499;28;20657;-64
2022/09/10 02:31:24;;;;;;;30.05;26.85;;;14.50;99.90;;;;;;5025300;28;20034;-63
2022/09/10 02:33:50;;;;;;;29.70;26.33;;;14.50;99.90;;;;;;5025335;28;20045;-64
2022/09/10 02:36:16;;;;;;;30.40;27.10;;;14.50;99.90;;;;;;5024117;28;20049;-64
2022/09/10 02:38:43;;;;;;;30.48;27.30;;;14.50;99.90;;;;;;5025134;28;20777;-63
2022/09/10 02:41:09;;;;;;;31.83;28.55;;;14.50;99.90;;;;;;5024342;28;20050;-64
2022/09/10 02:43:36;;;;;;;35.40;29.45;;;14.50;99.90;;;;;;5024855;28;20053;-65
2022/09/10 02:46:06;;;;;;;32.30;28.52;;;14.50;99.90;;;;;;5023817;28;20107;-64
2022/09/10 02:48:32;;;;;;;31.73;28.25;;;14.60;99.90;;;;;;5024699;28;20229;-64
2022/09/10 02:50:58;;;;;;;34.35;28.85;;;14.50;99.90;;;;;;5025256;28;20064;-64
2022/09/10 02:53:24;;;;;;;33.55;29.48;;;14.60;99.90;;;;;;5024500;28;20661;-63
2022/09/10 02:55:51;;;;;;;33.90;28.88;;;14.60;99.90;;;;;;5023194;28;20099;-64
2022/09/10 02:58:17;;;;;;;33.90;28.73;;;14.60;99.90;;;;;;5024326;28;20045;-65
2022/09/10 03:00:44;;;;;;;30.73;26.98;;;14.60;99.90;;;;;;5024606;28;20049;-64
2022/09/10 03:03:10;;;;;;;32.30;28.02;;;14.60;99.90;;;;;;5024793;28;20052;-63
2022/09/10 03:05:37;;;;;;;34.83;28.58;;;14.60;99.90;;;;;;5026371;28;20049;-63
2022/09/10 03:08:08;;;;;;;32.97;29.30;;;14.60;99.90;;;;;;5033578;28;20183;-64
2022/09/10 03:10:34;;;;;;;31.80;28.00;;;14.60;99.90;;;;;;5023991;28;20375;-64
2022/09/10 03:13:00;;;;;;;34.42;29.25;;;15.20;99.90;;;;;;5022737;28;20121;-65
2022/09/10 03:15:27;;;;;;;34.17;28.35;;;14.60;99.90;;;;;;5024352;28;20460;-64
2022/09/10 03:17:53;;;;;;;33.78;28.17;;;14.60;99.90;;;;;;5024934;28;20050;-63
2022/09/10 03:20:21;;;;;;;33.33;28.98;;;14.60;99.90;;;;;;5025076;28;20050;-64
2022/09/10 03:22:50;;;;;;;34.42;29.52;;;14.60;99.90;;;;;;5024139;28;20060;-64
2022/09/10 03:25:16;;;;;;;35.63;29.58;;;14.60;99.90;;;;;;5023811;28;20084;-64
2022/09/10 03:27:42;;;;;;;32.80;28.88;;;14.60;99.90;;;;;;5024434;28;20396;-64
2022/09/10 03:30:08;;;;;;;34.15;28.25;;;14.60;99.90;;;;;;5023898;28;20037;-64
2022/09/10 03:32:33;;;;;;;34.05;29.88;;;14.60;99.90;;;;;;5024185;28;20041;-63
2022/09/10 03:34:59;;;;;;;32.55;28.98;;;14.60;99.90;;;;;;5024595;28;20542;-64
2022/09/10 03:37:25;;;;;;;31.20;27.60;;;14.60;99.90;;;;;;5023431;28;20049;-63
2022/09/10 03:39:51;;;;;;;34.67;29.25;;;14.60;99.90;;;;;;5023753;28;20084;-64
2022/09/10 03:42:16;;;;;;;36.83;29.92;;;14.60;99.90;;;;;;5023745;28;20080;-64
2022/09/10 03:44:42;;;;;;;32.15;28.75;;;14.70;99.90;;;;;;5024247;28;20049;-63
2022/09/10 03:47:10;;;;;;;34.08;28.38;;;14.70;99.90;;;;;;5023730;28;20737;-64
2022/09/10 03:49:36;;;;;;;31.50;28.05;;;14.70;99.90;;;;;;5023986;28;20052;-64
2022/09/10 03:52:02;;;;;;;30.85;26.42;;;14.70;99.90;;;;;;5023941;28;20045;-64
2022/09/10 03:54:27;;;;;;;32.75;29.00;;;14.70;99.90;;;;;;5022441;28;20037;-63
2022/09/10 03:56:53;;;;;;;35.53;27.60;;;14.60;99.90;;;;;;5023893;28;20128;-64
2022/09/10 03:59:19;;;;;;;34.80;27.70;;;14.70;99.90;;;;;;5024306;28;20056;-64
2022/09/10 04:01:44;;;;;;;32.63;28.10;;;14.70;99.90;;;;;;5023762;28;20508;-63
2022/09/10 04:04:11;;;;;;;33.80;27.25;;;14.60;99.90;;;;;;5023130;28;20059;-64
2022/09/10 04:06:39;;;;;;;33.67;27.35;;;14.70;99.90;;;;;;5031671;28;20045;-63
2022/09/10 04:09:05;;;;;;;36.85;28.75;;;14.70;99.90;;;;;;5025031;28;20041;-64
2022/09/10 04:11:30;;;;;;;33.40;28.33;;;14.70;99.90;;;;;;5023162;28;20115;-63
2022/09/10 04:13:56;;;;;;;33.90;28.90;;;14.70;99.90;;;;;;5023822;28;20037;-64
2022/09/10 04:16:22;;;;;;;32.17;28.67;;;14.70;99.90;;;;;;5024149;28;20092;-64
2022/09/10 04:18:49;;;;;;;36.15;28.85;;;14.70;99.90;;;;;;5023747;28;20041;-64
2022/09/10 04:21:15;;;;;;;33.05;28.20;;;14.70;99.90;;;;;;5023667;28;20473;-64
2022/09/10 04:23:42;;;;;;;38.70;29.40;;;14.70;99.90;;;;;;5021738;28;20084;-64
2022/09/10 04:26:16;;;;;;;35.13;29.45;;;14.70;99.90;;;;;;5022059;28;20056;-64
2022/09/10 04:28:42;;;;;;;33.33;28.70;;;14.70;99.90;;;;;;5023204;28;20049;-63
2022/09/10 04:31:08;;;;;;;34.95;29.65;;;14.70;99.90;;;;;;5023529;28;20164;-64
2022/09/10 04:33:34;;;;;;;35.13;29.95;;;14.70;99.90;;;;;;5022004;28;20056;-63
2022/09/10 04:36:00;;;;;;;38.05;29.83;;;14.70;99.90;;;;;;5022991;28;20037;-64
2022/09/10 04:38:29;;;;;;;32.78;27.92;;;14.70;99.90;;;;;;5021883;28;20041;-63
2022/09/10 04:40:56;;;;;;;36.33;28.80;;;14.70;99.90;;;;;;5022806;28;20605;-64
2022/09/10 04:43:24;;;;;;;35.85;28.42;;;14.70;99.90;;;;;;5023119;28;20093;-64
2022/09/10 04:45:51;;;;;;;35.38;27.90;;;14.80;99.90;;;;;;5023948;28;20076;-64
2022/09/10 04:48:16;;;;;;;34.30;28.65;;;14.70;99.90;;;;;;5023347;28;20427;-64
2022/09/10 04:50:42;;;;;;;36.80;29.55;;;14.70;99.90;;;;;;5021808;28;20106;-64
2022/09/10 04:53:08;;;;;;;33.90;29.40;;;14.70;99.90;;;;;;5022867;28;20057;-64
2022/09/10 04:55:38;;;;;;;34.45;28.45;;;14.80;99.90;;;;;;5022385;28;20451;-64
2022/09/10 04:58:04;;;;;;;32.45;27.48;;;14.80;99.90;;;;;;5023508;28;20054;-64
2022/09/10 05:00:30;;;;;;;34.60;29.10;;;14.80;99.90;;;;;;5022404;28;20049;-64
2022/09/10 05:02:56;;;;;;;33.03;27.75;;;14.80;99.90;;;;;;5023400;28;20416;-64
2022/09/10 05:05:21;;;;;;;34.65;28.27;;;14.80;99.90;;;;;;5026063;28;20049;-64
2022/09/10 05:07:47;;;;;;;34.72;28.50;;;14.80;99.90;;;;;;5031549;28;20148;-63
2022/09/10 05:10:14;;;;;;;29.52;26.38;;;14.80;99.90;;;;;;5022461;28;20049;-64
2022/09/10 05:12:40;;;;;;;36.67;28.27;;;14.80;99.90;;;;;;5022432;28;20049;-64
2022/09/10 05:15:06;;;;;;;35.22;27.15;;;14.80;99.90;;;;;;5023303;28;20046;-64
2022/09/10 05:17:32;;;;;;;33.92;26.25;;;14.80;99.90;;;;;;5024347;28;20045;-63
2022/09/10 05:19:58;;;;;;;31.73;24.50;;;14.80;99.90;;;;;;5026767;28;20440;-64
2022/09/10 05:22:25;;;;;;;33.67;26.02;;;14.80;99.90;;;;;;5026402;28;20133;-64
2022/09/10 05:24:50;;;;;;;35.38;28.67;;;14.80;99.90;;;;;;5026097;28;20045;-64
2022/09/10 05:27:16;;;;;;;34.95;26.67;;;14.80;99.90;;;;;;5026737;28;20472;-64
2022/09/10 05:29:42;;;;;;;32.60;26.92;;;14.80;99.90;;;;;;5026398;28;20036;-63
2022/09/10 05:32:12;;;;;;;33.22;26.20;;;14.80;99.90;;;;;;5026743;28;20052;-63
2022/09/10 05:34:38;;;;;;;34.08;25.83;;;14.90;99.90;;;;;;5026697;28;20081;-64
2022/09/10 05:37:04;;;;;;;36.28;26.70;;;14.80;99.90;;;;;;5026193;28;20038;-64
2022/09/10 05:39:30;;;;;;;35.15;25.95;;;14.90;99.90;;;;;;5025774;28;20121;-65
2022/09/10 05:41:56;;;;;;;33.40;25.63;;;14.80;99.90;;;;;;5025960;28;20145;-64
2022/09/10 05:44:21;;;;;;;35.70;26.13;;;14.90;99.90;;;;;;5026924;28;20081;-64
2022/09/10 05:46:47;;;;;;;34.28;26.58;;;14.90;99.90;;;;;;5008736;28;20472;-64
2022/09/10 05:49:13;;;;;;;34.95;25.27;;;14.90;99.90;;;;;;5026053;28;20064;-65
2022/09/10 05:51:38;;;;;;;35.33;26.50;;;14.90;99.90;;;;;;5025945;28;20132;-65
2022/09/10 05:54:04;;;;;;;38.25;27.13;;;14.90;99.90;;;;;;5025686;28;20045;-64
2022/09/10 05:56:30;;;;;;;35.67;26.80;;;15.00;99.90;;;;;;5025919;28;20480;-64
2022/09/10 05:58:56;;;;;;;32.08;25.92;;;15.00;99.90;;;;;;5025581;28;20041;-64
2022/09/10 06:01:22;;;;;;;37.70;26.92;;;15.00;99.90;;;;;;5026489;28;20047;-64
2022/09/10 06:03:49;;;;;;;34.10;25.63;;;15.00;99.90;;;;;;5026426;28;20053;-64
2022/09/10 06:06:15;;;;;;;32.33;26.23;;;15.10;99.90;;;;;;5031054;28;20060;-63
2022/09/10 06:08:41;;;;;;;34.30;25.83;;;15.10;99.90;;;;;;5030216;28;20546;-64
2022/09/10 06:11:08;;;;;;;33.72;27.30;;;15.10;99.90;;;;;;5024311;28;20120;-65
2022/09/10 06:13:37;;;;;;;31.45;25.67;;;15.10;99.90;;;;;;5025592;28;20108;-65
2022/09/10 06:16:03;;;;;;;33.70;24.60;;;15.10;99.90;;;;;;5025246;28;20045;-65
2022/09/10 06:18:30;;;;;;;31.67;25.00;;;15.20;99.90;;;;;;5025298;28;20471;-65
2022/09/10 06:21:03;;;;;;;31.50;25.88;;;15.20;99.90;;;;;;5025017;28;20056;-65
2022/09/10 06:23:30;;;;;;;33.65;25.38;;;15.30;99.90;;;;;;5024466;28;20103;-66
2022/09/10 06:26:13;;;;;;;31.75;25.30;;;15.40;99.90;;;;;;5025640;28;20052;-64
2022/09/10 06:28:39;;;;;;;31.70;25.80;;;15.50;99.90;;;;;;5022998;28;20100;-64
2022/09/10 06:31:06;;;;;;;32.50;24.58;;;15.40;99.90;;;;;;5025362;28;20412;-64
2022/09/10 06:33:33;;;;;;;31.02;24.60;;;15.40;99.90;;;;;;5025551;28;20084;-64
2022/09/10 06:36:00;;;;;;;30.15;24.92;;;15.30;99.90;;;;;;5025665;28;20029;-65
2022/09/10 06:38:32;;;;;;;29.35;24.60;;;15.40;99.90;;;;;;5022815;28;20079;-65
2022/09/10 06:41:00;;;;;;;29.77;23.38;;;15.30;99.90;;;;;;5025649;28;20077;-64
2022/09/10 06:43:30;;;;;;;32.33;23.80;;;15.30;99.90;;;;;;5025198;28;20041;-64
2022/09/10 06:45:55;;;;;;;29.80;24.45;;;15.30;99.90;;;;;;5025515;28;20579;-65
2022/09/10 06:48:26;;;;;;;32.38;23.80;;;15.40;99.90;;;;;;5025691;28;20037;-64
2022/09/10 06:50:54;;;;;;;31.73;23.45;;;15.30;99.90;;;;;;5025672;28;20580;-65
2022/09/10 06:53:21;;;;;;;29.95;24.25;;;15.30;99.90;;;;;;5023057;28;20046;-64
2022/09/10 06:55:51;;;;;;;31.40;23.85;;;15.40;99.90;;;;;;5024765;28;20430;-65
2022/09/10 06:58:22;;;;;;;31.48;24.25;;;15.40;99.90;;;;;;5025373;28;20064;-65
2022/09/10 07:00:49;;;;;;;34.15;24.02;;;15.40;99.90;;;;;;5025489;28;20045;-65
2022/09/10 07:03:16;;;;;;;28.83;23.13;;;15.50;99.90;;;;;;5025146;28;20129;-63
2022/09/10 07:05:42;;;;;;;30.63;23.17;;;15.50;99.90;;;;;;5025502;28;20038;-64
2022/09/10 07:08:11;;;;;;;30.48;22.63;;;15.50;99.90;;;;;;5032952;28;20042;-64
2022/09/10 07:10:37;;;;;;;30.10;22.83;;;15.60;99.90;;;;;;5023928;28;20420;-63
2022/09/10 07:13:03;;;;;;;28.52;23.20;;;15.60;99.90;;;;;;5024858;28;20124;-60
2022/09/10 07:15:29;;;;;;;31.73;23.35;;;15.50;99.90;;;;;;5023798;28;20041;-63
2022/09/10 07:17:55;;;;;;;28.40;22.20;;;15.60;99.90;;;;;;5024680;28;20037;-64
2022/09/10 07:20:22;;;;;;;28.33;22.77;;;15.60;99.90;;;;;;5024794;28;20799;-64
2022/09/10 07:22:52;;;;;;;31.65;23.35;;;15.60;99.90;;;;;;5024486;28;20055;-64
2022/09/10 07:25:18;;;;;;;28.75;23.67;;;15.50;99.90;;;;;;5023920;28;20420;-63
2022/09/10 07:27:44;;;;;;;32.15;24.52;;;15.50;99.90;;;;;;5024349;28;20246;-64
2022/09/10 07:30:11;;;;;;;29.83;23.98;;;15.60;99.90;;;;;;5024568;28;20049;-62
2022/09/10 07:32:37;;;;;;;28.83;23.73;;;15.70;99.90;;;;;;5024350;28;20465;-63
2022/09/10 07:35:03;;;;;;;27.33;22.65;;;15.70;99.90;;;;;;5024385;28;20044;-64
2022/09/10 07:37:28;;;;;;;30.08;23.63;;;15.70;99.90;;;;;;5024231;28;20091;-63
2022/09/10 07:39:54;;;;;;;27.00;22.95;;;15.70;99.90;;;;;;5022508;28;20107;-63
2022/09/10 07:42:20;;;;;;;29.48;21.88;;;15.80;99.90;;;;;;5023869;28;20511;-64
2022/09/10 07:44:45;;;;;;;28.20;21.48;;;15.80;99.90;;;;;;5024127;28;20049;-63
2022/09/10 07:47:11;;;;;;;26.90;21.88;;;15.80;99.90;;;;;;5024171;28;20132;-64
2022/09/10 07:49:37;;;;;;;25.63;21.70;;;15.70;99.90;;;;;;5023490;28;20064;-63
2022/09/10 07:52:03;;;;;;;28.08;21.35;;;15.70;99.90;;;;;;5022765;28;20115;-63
2022/09/10 07:54:29;;;;;;;28.05;22.17;;;15.70;99.90;;;;;;5023345;28;20041;-63
2022/09/10 07:56:54;;;;;;;26.77;21.15;;;15.80;99.90;;;;;;5022235;28;20041;-63
2022/09/10 07:59:20;;;;;;;27.27;21.30;;;15.70;99.90;;;;;;5024125;28;20042;-63
2022/09/10 08:01:46;;;;;;;25.42;20.50;;;15.80;99.90;;;;;;5023973;28;20034;-63
2022/09/10 08:04:12;;;;;;;29.65;23.20;;;15.70;99.90;;;;;;5022406;28;20041;-63
2022/09/10 08:06:37;;;;;;;28.23;22.38;;;15.80;99.90;;;;;;5031963;28;20118;-63
2022/09/10 08:09:07;;;;;;;31.80;24.15;;;15.80;99.90;;;;;;5023872;28;20045;-63
2022/09/10 08:11:33;;;;;;;32.17;23.00;;;15.80;99.90;;;;;;5023537;28;20050;-64
2022/09/10 08:14:00;;;;;;;28.50;21.63;;;15.80;99.90;;;;;;5023528;28;20060;-63
2022/09/10 08:16:26;;;;;;;28.85;20.92;;;15.80;99.90;;;;;;5024030;28;20369;-63
2022/09/10 08:18:56;;;;;;;28.42;22.02;;;15.80;99.90;;;;;;5022600;28;20309;-62
2022/09/10 08:21:23;;;;;;;27.40;20.45;;;15.80;99.90;;;;;;5023667;28;20087;-62
2022/09/10 08:23:52;;;;;;;27.60;21.73;;;15.90;99.90;;;;;;5023183;28;20049;-63
2022/09/10 08:26:22;;;;;;;22.45;19.75;;;15.80;99.90;;;;;;5024166;28;20515;-64
2022/09/10 08:28:54;;;;;;;26.58;20.13;;;15.90;99.90;;;;;;5023447;28;20048;-64
2022/09/10 08:31:21;;;;;;;26.98;21.70;;;15.90;99.90;;;;;;5022803;28;20053;-63
2022/09/10 08:33:52;;;;;;;25.92;20.70;;;15.80;99.90;;;;;;5023334;28;20760;-63
2022/09/10 08:36:20;;;;;;;28.48;21.25;;;15.80;99.90;;;;;;5023243;28;20080;-63
2022/09/10 08:38:46;;;;;;;26.35;20.98;;;15.90;99.90;;;;;;5022585;28;20045;-64
2022/09/10 08:41:31;;;;;;;26.85;21.05;;;15.90;99.90;;;;;;5023337;28;20038;-63
2022/09/10 08:44:08;;;;;;;25.42;21.30;;;16.00;99.90;;;;;;5023201;28;20064;-62
2022/09/10 08:47:05;;;;;;;23.67;20.23;;;16.00;99.90;;;;;;5027283;28;20060;-62
2022/09/10 08:49:43;;;;;;;27.50;20.52;;;16.00;99.90;;;;;;5024381;28;20052;-63
2022/09/10 08:52:26;;;;;;;24.55;20.52;;;16.10;99.90;;;;;;5034057;28;20049;-63
2022/09/10 08:55:12;;;;;;;23.65;19.73;;;16.20;99.90;;;;;;5031030;28;20041;-62
2022/09/10 08:57:44;;;;;;;25.67;18.90;;;16.30;99.90;;;;;;5046175;28;20041;-62
2022/09/10 09:00:17;;;;;;;23.52;19.45;;;16.20;99.90;;;;;;5046727;28;20067;-63
2022/09/10 09:03:22;;;;;;;23.08;17.42;;;16.30;99.90;;;;;;5045163;28;20164;-62
2022/09/10 09:05:53;;;;;;;22.00;19.13;;;16.30;99.90;;;;;;5032823;28;20132;-62
2022/09/10 09:08:26;;;;;;;21.58;17.73;;;16.50;99.90;;;;;;5040457;28;20056;-62
2022/09/10 09:11:02;;;;;;;21.88;18.25;;;16.40;99.90;;;;;;5046869;28;20672;-62
2022/09/10 09:13:51;;;;;;;25.38;18.27;;;16.60;99.90;;;;;;5046222;28;20120;-62
2022/09/10 09:16:33;;;;;;;22.02;18.52;;;16.80;99.90;;;;;;5046593;28;20077;-62
2022/09/10 09:19:13;;;;;;;21.17;17.38;;;16.80;99.90;;;;;;5046141;28;20037;-63
2022/09/10 09:21:50;;;;;;;22.55;18.17;;;16.80;99.90;;;;;;5044583;28;20076;-61
2022/09/10 09:24:24;;;;;;;20.85;17.15;;;16.70;99.90;;;;;;5045002;28;20045;-63
2022/09/10 09:26:54;;;;;;;25.95;19.15;;;16.80;99.90;;;;;;5047014;28;20095;-63
2022/09/10 09:29:34;;;;;;;23.42;18.85;;;16.70;99.90;;;;;;5046854;28;20139;-63
2022/09/10 09:32:03;;;;;;;25.05;18.08;;;16.70;99.90;;;;;;5045987;28;20128;-63
2022/09/10 09:34:39;;;;;;;22.60;17.88;;;16.70;99.90;;;;;;5045986;28;20067;-64
2022/09/10 09:37:14;;;;;;;21.98;17.80;;;16.60;99.90;;;;;;5045866;28;20418;-63
2022/09/10 09:40:05;;;;;;;21.98;17.08;;;16.70;99.90;;;;;;5045236;28;20056;-63
2022/09/10 09:42:46;;;;;;;21.88;16.80;;;16.70;99.90;;;;;;5045352;28;20384;-63
2022/09/10 09:45:19;;;;;;;22.10;16.17;;;16.70;99.90;;;;;;5046075;28;20076;-64
2022/09/10 09:47:45;;;;;;;21.02;16.13;;;16.70;99.90;;;;;;5045485;28;20060;-62
2022/09/10 09:50:12;;;;;;;20.08;14.82;;;16.70;99.90;;;;;;5036937;28;20043;-63
2022/09/10 09:52:42;;;;;;;18.27;15.07;;;16.70;99.90;;;;;;5025777;28;20420;-63
2022/09/10 09:55:30;;;;;;;17.23;13.88;;;16.80;99.90;;;;;;5023712;28;20060;-63
2022/09/10 09:58:20;;;;;;;17.73;13.85;;;16.90;99.90;;;;;;5024358;28;20134;-64
2022/09/10 10:01:11;;;;;;;19.55;14.23;;;16.90;99.90;;;;;;5025533;28;20468;-64
2022/09/10 10:03:57;;;;;;;19.08;14.45;;;16.90;99.90;;;;;;5025069;28;20037;-63
2022/09/10 10:06:25;;;;;;;16.83;14.55;;;16.90;99.90;;;;;;5032626;28;20056;-63
2022/09/10 10:09:06;;;;;;;18.23;14.38;;;17.00;99.90;;;;;;5029884;28;20144;-63
2022/09/10 10:11:38;;;;;;;17.10;14.18;;;17.00;99.90;;;;;;5025858;28;20072;-61
2022/09/10 10:14:19;;;;;;;19.33;14.43;;;17.00;99.90;;;;;;5025737;28;20041;-61
2022/09/10 10:16:51;;;;;;;16.02;13.25;;;17.10;99.90;;;;;;5024018;28;20567;-61
2022/09/10 10:19:25;;;;;;;18.77;13.15;;;17.20;99.90;;;;;;5025334;28;20084;-61
2022/09/10 10:21:53;;;;;;;17.58;13.82;;;17.20;99.90;;;;;;5025429;28;20400;-61
2022/09/10 10:24:32;;;;;;;16.85;14.13;;;17.30;99.90;;;;;;5025714;28;20077;-61
2022/09/10 10:26:59;;;;;;;17.63;13.85;;;17.30;99.90;;;;;;5025905;28;20088;-61
2022/09/10 10:29:26;;;;;;;17.50;12.00;;;17.40;99.90;;;;;;5023797;28;20052;-62
2022/09/10 10:31:52;;;;;;;15.02;12.45;;;17.60;99.90;;;;;;5026009;28;20369;-61
2022/09/10 10:34:54;;;;;;;14.82;11.98;;;17.60;99.90;;;;;;5025661;28;20132;-61
2022/09/10 10:37:50;;;;;;;15.23;13.13;;;17.70;99.90;;;;;;5025970;28;20068;-61
2022/09/10 10:40:36;;;;;;;15.48;13.02;;;17.90;99.90;;;;;;5025588;28;20049;-61
2022/09/10 10:43:32;;;;;;;16.38;13.25;;;18.00;99.90;;;;;;5024737;28;20080;-60
2022/09/10 10:46:14;;;;;;;16.27;12.73;;;18.00;99.90;;;;;;5024149;28;20055;-61
2022/09/10 10:49:15;;;;;;;15.95;12.15;;;18.20;99.90;;;;;;5024986;28;20060;-61
2022/09/10 10:52:01;;;;;;;13.73;11.65;;;18.20;99.90;;;;;;5023431;28;20050;-61
2022/09/10 10:54:36;;;;;;;13.77;10.45;;;18.20;99.90;;;;;;5024588;28;20110;-61
2022/09/10 10:57:13;;;;;;;11.45;9.73;;;18.20;99.90;;;;;;5024681;28;20061;-61
2022/09/10 10:59:51;;;;;;;11.52;10.20;;;18.30;99.90;;;;;;5024847;28;20137;-61
2022/09/10 11:02:27;;;;;;;13.95;10.60;;;18.40;99.90;;;;;;5024766;28;20041;-61
2022/09/10 11:04:54;;;;;;;15.18;10.90;;;18.50;99.90;;;;;;5024169;28;20435;-62
2022/09/10 11:07:28;;;;;;;16.42;11.98;;;18.60;99.90;;;;;;5035768;28;20053;-61
2022/09/10 11:10:31;;;;;;;13.32;11.45;;;18.60;99.90;;;;;;5024317;28;20072;-62
2022/09/10 11:13:35;;;;;;;12.90;10.20;;;18.70;99.90;;;;;;5023136;28;20053;-61
2022/09/10 11:16:18;;;;;;;10.52;9.00;;;18.80;99.90;;;;;;5024111;28;20052;-61
2022/09/10 11:18:56;;;;;;;11.80;10.13;;;18.80;99.90;;;;;;5022838;28;20064;-62
2022/09/10 11:21:31;;;;;;;11.70;9.85;;;19.00;99.90;;;;;;5024955;28;20100;-61
2022/09/10 11:24:12;;;;;;;12.20;9.40;;;18.60;99.90;;;;;;5022678;28;20486;-61
2022/09/10 11:26:44;;;;;;;11.18;8.35;;;19.30;99.90;;;;;;5023938;28;20107;-61
2022/09/10 11:29:30;;;;;;;11.10;8.98;;;19.40;99.90;;;;;;5024485;28;20161;-61
2022/09/10 11:32:22;;;;;;;11.00;8.35;;;19.70;99.90;;;;;;5022792;28;20041;-61
2022/09/10 11:34:48;;;;;;;11.75;9.65;;;19.80;99.90;;;;;;5024597;28;20042;-61
2022/09/10 11:37:49;;;;;;;10.57;9.07;;;19.90;99.90;;;;;;5022684;28;20404;-61
2022/09/10 11:40:45;;;;;;;11.13;8.75;;;19.80;99.90;;;;;;5024340;28;20431;-61
2022/09/10 11:43:27;;;;;;;10.50;9.15;;;19.80;99.90;;;;;;4988063;28;20050;-61
2022/09/10 11:46:03;;;;;;;12.75;10.60;;;19.90;99.90;;;;;;5023613;28;20091;-62
2022/09/10 11:48:39;;;;;;;12.60;9.63;;;19.80;99.90;;;;;;5023985;28;20048;-61
2022/09/10 11:51:13;;;;;;;10.82;8.13;;;20.00;99.90;;;;;;5023884;28;20107;-61
2022/09/10 11:53:39;;;;;;;10.52;8.05;;;20.10;99.90;;;;;;5022083;28;20053;-61
2022/09/10 11:56:17;;;;;;;10.35;8.15;;;20.00;99.90;;;;;;5024191;28;20045;-61
2022/09/10 11:59:05;;;;;;;11.43;8.57;;;19.80;99.90;;;;;;5022476;28;20049;-61
2022/09/10 12:01:53;;;;;;;10.00;8.95;;;19.90;99.90;;;;;;5023827;28;20076;-62
2022/09/10 12:04:46;;;;;;;11.55;9.65;;;19.90;99.90;;;;;;5024186;28;20096;-61
2022/09/10 12:07:46;;;;;;;10.95;9.60;;;20.10;99.90;;;;;;5031305;28;20061;-61
2022/09/10 12:10:31;;;;;;;13.25;10.85;;;20.30;99.90;;;;;;5043030;28;20495;-61
2022/09/10 12:12:56;;;;;;;;;;;20.40;99.90;;;;;;5044053;28;20706;-61
2022/09/10 12:15:25;;;;;;;13.48;10.20;;;20.60;99.90;;;;;;5044147;28;19947;-61
2022/09/10 12:17:57;;;;;;;12.43;8.80;;;20.80;99.90;;;;;;5044134;28;20460;-61
2022/09/10 12:20:30;;;;;;;11.95;10.20;;;21.10;99.90;;;;;;5043411;28;20123;-62
2022/09/10 12:22:57;;;;;;;11.60;9.95;;;21.10;99.90;;;;;;5042403;28;20136;-61
2022/09/10 12:25:27;;;;;;;10.20;9.18;;;21.20;99.90;;;;;;5043826;28;20052;-62
2022/09/10 12:27:58;;;;;;;12.43;9.15;;;21.20;99.90;;;;;;5042943;28;20052;-66
2022/09/10 12:30:24;;;;;;;12.25;9.45;;;21.30;99.90;;;;;;5042813;28;20045;-63
2022/09/10 12:32:54;;;;;;;10.40;8.48;;;21.30;99.90;;;;;;5043662;28;20553;-64
2022/09/10 12:35:33;;;;;;;12.23;8.95;;;21.60;99.90;;;;;;5042785;28;20493;-64
2022/09/10 12:38:36;;;;;;;10.30;8.90;;;21.60;99.90;;;;;;5042409;28;20049;-65
2022/09/10 12:41:03;;;;;;;10.35;8.82;;;21.60;99.90;;;;;;5042904;28;20053;-64
2022/09/10 12:43:38;;;;;;;12.18;10.07;;;21.50;99.90;;;;;;5043076;28;20434;-64
2022/09/10 12:46:17;;;;;;;12.38;10.25;;;21.40;99.90;;;;;;5043267;28;20045;-64
2022/09/10 12:49:10;;;;;;;12.80;10.88;;;21.40;99.90;;;;;;5042581;28;20049;-64
2022/09/10 12:51:38;;;;;;;13.15;10.38;;;21.20;99.90;;;;;;5038140;28;20140;-64